Broadway, North Carolina
Current Conditions -  °F | °C
As of 4:15 AM on Monday 22 Dec 2014 (Local Time) from KTTA Reporting Station
Heavy Rain Heavy Rain  
Wind Chill: 31°   Ceiling: 800
Heat Index: 38°   Visibility: 2mi
Dew Point: 38°   Wind: 12mph
Humidity: 100%   Direction: 20°NNE
Pressure: 30.14"   Gusts: NA
Location:  35.46°N, 79.05°W
Report Text: KTTA 220915Z AUTO 02010KT 2SM +RA OVC008 03/03 A3014 RMK AO2 P0007 T00340034
Loading
Personal Weather Stations






























Interactive Weather Map New forecast layout! Learn more

10-Day Weather Forecast

Advertisements
Track Severe Weather on mobile